Time;durP1;ratioP1;P1;durP2;ratioP2;P2;SDS_P1;SDS_P2;PMS_P1;PMS_P2;Temp;Humidity;BMP_temperature;BMP_pressure;BME280_temperature;BME280_humidity;BME280_pressure;Samples;Min_cycle;Max_cycle;Signal;HPM_P1;HPM_P2
2022/08/26 00:02:07;;;;;;;39.20;34.22;;;21.40;99.90;;;;;;5131028;27;20047;-84
2022/08/26 00:04:52;;;;;;;36.28;32.42;;;;;;;;;;5126291;27;20157;-84
2022/08/26 00:07:36;;;;;;;45.47;34.35;;;20.60;99.90;;;;;;5134746;27;20082;-84
2022/08/26 00:10:21;;;;;;;39.83;34.42;;;20.70;99.90;;;;;;5107073;27;20505;-84
2022/08/26 00:13:05;;;;;;;42.92;35.83;;;20.50;99.90;;;;;;5136162;27;20099;-84
2022/08/26 00:15:50;;;;;;;42.00;36.88;;;20.50;99.90;;;;;;5143878;27;20083;-84
2022/08/26 00:18:34;;;;;;;40.20;35.65;;;20.50;99.90;;;;;;5140615;27;20030;-84
2022/08/26 00:21:19;;;;;;;39.83;35.38;;;20.40;99.90;;;;;;5140417;27;20054;-84
2022/08/26 00:24:03;;;;;;;42.83;35.30;;;20.50;99.90;;;;;;5155068;27;20025;-84
2022/08/26 00:26:48;;;;;;;40.10;35.80;;;20.40;99.90;;;;;;5134793;27;20100;-84
2022/08/26 00:29:33;;;;;;;43.50;37.13;;;;;;;;;;5120194;27;20399;-84
2022/08/26 00:32:17;;;;;;;41.22;36.78;;;20.30;99.90;;;;;;5123144;27;20132;-84
2022/08/26 00:35:02;;;;;;;44.80;37.40;;;20.80;99.90;;;;;;5130688;27;20084;-84
2022/08/26 00:37:47;;;;;;;45.60;37.30;;;20.20;99.90;;;;;;5134330;27;20061;-83
2022/08/26 00:40:35;;;;;;;44.85;37.88;;;20.50;99.90;;;;;;5120884;27;20047;-84
2022/08/26 00:43:20;;;;;;;42.85;38.25;;;20.50;99.90;;;;;;5117307;27;20037;-84
2022/08/26 00:46:18;;;;;;;41.58;36.80;;;20.30;99.90;;;;;;5108831;27;20038;-85
2022/08/26 00:49:08;;;;;;;48.92;37.40;;;19.20;99.90;;;;;;5113508;28;20046;-90
2022/08/26 00:51:55;;;;;;;40.75;35.53;;;20.40;99.90;;;;;;5113625;28;20498;-84
2022/08/26 00:54:45;;;;;;;39.88;35.67;;;20.30;99.90;;;;;;5125426;27;20058;-84
2022/08/26 00:57:31;;;;;;;48.97;37.78;;;20.20;99.90;;;;;;5133571;27;20135;-84
2022/08/26 01:00:20;;;;;;;44.97;37.20;;;20.30;99.90;;;;;;5135346;27;20084;-85
2022/08/26 01:03:05;;;;;;;46.65;36.90;;;20.20;99.90;;;;;;5123852;27;20160;-88
2022/08/26 01:05:54;;;;;;;44.45;35.05;;;20.30;99.90;;;;;;5114250;27;20071;-84
2022/08/26 01:08:38;;;;;;;46.33;34.47;;;20.10;99.90;;;;;;5113355;28;20451;-89
2022/08/26 01:11:24;;;;;;;44.65;35.17;;;20.30;99.90;;;;;;5126905;27;20447;-84
2022/08/26 01:14:10;;;;;;;44.97;33.58;;;20.30;99.90;;;;;;5147767;27;20042;-84
2022/08/26 01:16:54;;;;;;;40.35;30.90;;;20.40;99.90;;;;;;5145784;27;20048;-83
2022/08/26 01:19:46;;;;;;;39.13;30.15;;;20.30;99.90;;;;;;5126253;27;20055;-84
2022/08/26 01:22:55;;;;;;;39.58;29.52;;;21.10;99.90;;;;;;5130090;27;20078;-83
2022/08/26 01:25:44;;;;;;;36.97;29.45;;;20.50;99.90;;;;;;5141191;27;20089;-84
2022/08/26 01:28:31;;;;;;;37.85;28.13;;;20.40;99.90;;;;;;5116383;28;20420;-84
2022/08/26 01:31:17;;;;;;;37.55;29.33;;;20.20;99.90;;;;;;5119641;27;20038;-84
2022/08/26 01:34:11;;;;;;;44.85;30.60;;;20.30;99.90;;;;;;5125408;28;20038;-84
2022/08/26 01:37:04;;;;;;;40.33;28.98;;;20.40;99.90;;;;;;5106172;28;20119;-84
2022/08/26 01:39:52;;;;;;;37.85;27.92;;;20.50;99.90;;;;;;5152151;27;20095;-83
2022/08/26 01:42:36;;;;;;;38.85;26.70;;;20.30;99.90;;;;;;5128452;27;20042;-84
2022/08/26 01:45:25;;;;;;;37.63;27.60;;;20.40;99.90;;;;;;5128100;27;20073;-83
2022/08/26 01:48:14;;;;;;;40.08;28.55;;;20.60;99.90;;;;;;5139512;27;20054;-83
2022/08/26 01:51:00;;;;;;;41.97;27.13;;;20.40;99.90;;;;;;5129633;27;20115;-84
2022/08/26 01:53:45;;;;;;;36.03;27.35;;;18.80;99.90;;;;;;5126520;27;20075;-84
2022/08/26 01:56:29;;;;;;;39.40;29.10;;;20.40;99.90;;;;;;5109148;27;20071;-83
2022/08/26 01:59:15;;;;;;;39.40;27.77;;;20.40;99.90;;;;;;5143675;27;20532;-84
2022/08/26 02:02:00;;;;;;;39.05;28.52;;;20.50;99.90;;;;;;5114399;28;20100;-85
2022/08/26 02:04:50;;;;;;;39.63;25.27;;;20.40;99.90;;;;;;5126577;28;20074;-84
2022/08/26 02:07:34;;;;;;;35.83;26.02;;;20.50;99.90;;;;;;5124630;27;20082;-84
2022/08/26 02:10:18;;;;;;;38.35;25.58;;;20.60;99.90;;;;;;5134804;27;20034;-84
2022/08/26 02:13:03;;;;;;;37.22;26.17;;;20.50;99.90;;;;;;5136458;27;20038;-84
2022/08/26 02:15:47;;;;;;;40.55;26.10;;;20.50;99.90;;;;;;5121758;27;20114;-84
2022/08/26 02:18:36;;;;;;;36.97;24.75;;;20.50;99.90;;;;;;5135250;27;20088;-84
2022/08/26 02:21:20;;;;;;;35.67;24.83;;;20.30;99.90;;;;;;5125202;27;20042;-84
2022/08/26 02:24:14;;;;;;;41.80;26.67;;;20.60;99.90;;;;;;5140369;27;20030;-84
2022/08/26 02:26:58;;;;;;;;;;;20.50;99.90;;;;;;5109013;27;20050;-83
2022/08/26 02:29:44;;;;;;;;;;;20.40;99.90;;;;;;5132547;27;19952;-85
2022/08/26 02:32:28;;;;;;;39.55;24.33;;;20.50;99.90;;;;;;5142937;27;19930;-83
2022/08/26 02:35:14;;;;;;;37.28;25.50;;;20.40;99.90;;;;;;5157611;27;20065;-84
2022/08/26 02:37:59;;;;;;;38.70;26.08;;;20.60;99.90;;;;;;5142802;27;20050;-84
2022/08/26 02:40:43;;;;;;;41.30;24.75;;;20.40;99.90;;;;;;5142464;27;20038;-85
2022/08/26 02:43:27;;;;;;;42.08;24.25;;;20.20;99.90;;;;;;5128475;27;20035;-84
2022/08/26 02:46:12;;;;;;;43.35;23.98;;;20.50;99.90;;;;;;5130386;27;20095;-84
2022/08/26 02:48:57;;;;;;;39.47;24.70;;;21.00;99.90;;;;;;5140703;27;20088;-84
2022/08/26 02:51:41;;;;;;;37.13;22.00;;;20.40;99.90;;;;;;5150103;27;20038;-83
2022/08/26 02:54:25;;;;;;;33.92;21.48;;;20.40;99.90;;;;;;5148951;27;20034;-84
2022/08/26 02:57:10;;;;;;;37.75;21.48;;;20.50;99.90;;;;;;5146305;27;20041;-84
2022/08/26 02:59:54;;;;;;;34.25;21.25;;;;;;;;;;5108162;27;20389;-83
2022/08/26 03:02:39;;;;;;;36.65;21.23;;;20.30;99.90;;;;;;5149392;27;20231;-83
2022/08/26 03:05:23;;;;;;;35.85;20.23;;;20.50;99.90;;;;;;5135399;27;20114;-84
2022/08/26 03:08:10;;;;;;;35.28;19.98;;;20.90;99.90;;;;;;5152935;27;20170;-84
2022/08/26 03:10:54;;;;;;;34.22;21.25;;;20.50;99.90;;;;;;5115032;27;20156;-84
2022/08/26 03:13:39;;;;;;;32.00;20.00;;;20.60;99.90;;;;;;5154984;27;20075;-84
2022/08/26 03:16:24;;;;;;;31.08;19.23;;;20.40;99.90;;;;;;5146219;27;20042;-84
2022/08/26 03:19:08;;;;;;;28.98;18.60;;;20.50;99.90;;;;;;5114423;27;20041;-84
2022/08/26 03:21:53;;;;;;;30.08;19.75;;;20.50;99.90;;;;;;5120497;27;20038;-83
2022/08/26 03:24:38;;;;;;;32.40;17.77;;;20.40;99.90;;;;;;5115914;27;20045;-84
2022/08/26 03:27:22;;;;;;;35.38;18.25;;;;;;;;;;5156321;27;20066;-89
2022/08/26 03:33:12;;;;;;;29.05;19.48;;;20.60;99.90;;;;;;5115242;28;20097;-84
2022/08/26 03:35:57;;;;;;;32.50;18.30;;;;;;;;;;5120230;27;20042;-84
2022/08/26 03:38:42;;;;;;;28.45;17.58;;;20.60;99.90;;;;;;5144142;27;20457;-83
2022/08/26 03:41:26;;;;;;;25.65;16.40;;;20.60;99.90;;;;;;5135255;27;20033;-83
2022/08/26 03:44:11;;;;;;;28.35;16.50;;;20.50;99.90;;;;;;5132024;27;20041;-84
2022/08/26 03:46:55;;;;;;;34.20;17.40;;;20.60;99.90;;;;;;5145413;27;20038;-83
2022/08/26 03:49:39;;;;;;;26.42;16.90;;;20.70;99.90;;;;;;5126700;27;20095;-83
2022/08/26 03:52:24;;;;;;;28.40;16.90;;;;;;;;;;5143235;27;20081;-84
2022/08/26 03:55:09;;;;;;;28.38;17.60;;;20.90;99.90;;;;;;5106901;27;20126;-83
2022/08/26 03:57:53;;;;;;;29.73;16.58;;;20.60;99.90;;;;;;5128027;27;20042;-84
2022/08/26 04:00:38;;;;;;;27.80;17.40;;;20.40;99.90;;;;;;5134917;27;20084;-83
2022/08/26 04:06:26;;;;;;;;;;;20.60;99.90;;;;;;5130816;27;20171;-87
2022/08/26 04:09:14;;;;;;;32.58;17.20;;;20.10;99.90;;;;;;5141991;27;19913;-84
2022/08/26 04:11:59;;;;;;;24.27;16.77;;;20.50;99.90;;;;;;5139423;27;20038;-84
2022/08/26 04:14:43;;;;;;;28.10;16.73;;;20.50;99.90;;;;;;5133748;27;20445;-83
2022/08/26 04:17:28;;;;;;;25.92;16.80;;;20.40;99.90;;;;;;5123827;27;20084;-84
2022/08/26 04:20:13;;;;;;;27.17;15.73;;;20.40;99.90;;;;;;5143142;27;20044;-84
2022/08/26 04:22:57;;;;;;;29.38;16.67;;;20.60;99.90;;;;;;5150138;27;20047;-83
2022/08/26 04:25:41;;;;;;;27.10;15.73;;;20.40;99.90;;;;;;5122581;27;20047;-83
2022/08/26 04:28:27;;;;;;;21.67;16.27;;;20.60;99.90;;;;;;5149194;27;20038;-84
2022/08/26 04:31:13;;;;;;;26.15;16.20;;;20.00;99.90;;;;;;5118764;27;20042;-84
2022/08/26 04:33:58;;;;;;;23.40;15.88;;;;;;;;;;5135976;27;20402;-84
2022/08/26 04:36:43;;;;;;;24.63;16.10;;;20.50;99.90;;;;;;5149739;27;20075;-83
2022/08/26 04:39:27;;;;;;;26.30;15.75;;;20.10;99.90;;;;;;5126605;27;20509;-83
2022/08/26 04:42:12;;;;;;;24.90;14.50;;;20.20;99.90;;;;;;5121337;27;20046;-85
2022/08/26 04:44:57;;;;;;;23.33;14.63;;;20.40;99.90;;;;;;5147301;27;20501;-84
2022/08/26 04:47:42;;;;;;;28.08;15.75;;;20.50;99.90;;;;;;5098479;28;20193;-84
2022/08/26 04:50:26;;;;;;;26.65;14.23;;;20.20;99.90;;;;;;5127142;27;20047;-84
2022/08/26 04:53:12;;;;;;;20.33;14.15;;;20.30;99.90;;;;;;5126312;27;20114;-83
2022/08/26 04:55:56;;;;;;;23.15;12.57;;;21.00;99.90;;;;;;5121950;27;20083;-83
2022/08/26 04:58:40;;;;;;;23.48;13.35;;;20.10;99.90;;;;;;5115109;27;20407;-84
2022/08/26 05:01:24;;;;;;;28.13;14.80;;;20.50;99.90;;;;;;5125242;27;20490;-83
2022/08/26 05:04:09;;;;;;;20.67;14.85;;;20.30;99.90;;;;;;5148567;27;20034;-83
2022/08/26 05:06:53;;;;;;;21.15;13.38;;;20.30;99.90;;;;;;5131956;27;20092;-83
2022/08/26 05:09:40;;;;;;;23.58;13.40;;;19.90;99.90;;;;;;5123952;27;20394;-83
2022/08/26 05:12:24;;;;;;;29.35;15.40;;;21.00;99.90;;;;;;5115259;27;20390;-83
2022/08/26 05:15:09;;;;;;;24.67;13.27;;;20.40;99.90;;;;;;5112187;27;20108;-83
2022/08/26 05:17:54;;;;;;;23.13;13.82;;;20.40;99.90;;;;;;5142441;27;20033;-83
2022/08/26 05:20:50;;;;;;;19.65;12.75;;;20.50;99.90;;;;;;5119811;27;20047;-84
2022/08/26 05:23:35;;;;;;;23.13;13.68;;;20.50;99.90;;;;;;5141563;27;20387;-83
2022/08/26 05:26:21;;;;;;;30.40;13.43;;;20.00;99.90;;;;;;5127361;27;20090;-83
2022/08/26 05:29:05;;;;;;;19.52;12.15;;;20.50;99.90;;;;;;5125240;27;20030;-84
2022/08/26 05:31:52;;;;;;;23.75;12.57;;;20.40;99.90;;;;;;5133076;27;20084;-84
2022/08/26 05:34:36;;;;;;;23.20;13.25;;;20.70;99.90;;;;;;5133656;27;20042;-84
2022/08/26 05:37:20;;;;;;;26.25;12.70;;;20.50;99.90;;;;;;5110226;28;20049;-84
2022/08/26 05:40:05;;;;;;;23.80;12.95;;;20.40;99.90;;;;;;5122317;28;20379;-83
2022/08/26 05:42:51;;;;;;;22.67;13.55;;;21.00;99.90;;;;;;5118823;27;20034;-84
2022/08/26 05:45:43;;;;;;;27.02;14.50;;;20.50;99.90;;;;;;5127253;27;20481;-84
2022/08/26 05:48:28;;;;;;;25.83;13.98;;;20.40;99.90;;;;;;5128155;27;20163;-84
2022/08/26 05:51:12;;;;;;;25.45;13.77;;;20.70;99.90;;;;;;5122515;27;20084;-83
2022/08/26 05:53:57;;;;;;;23.38;13.70;;;20.30;99.90;;;;;;5121644;27;20127;-87
2022/08/26 05:56:42;;;;;;;26.02;14.10;;;;;;;;;;5136421;27;20058;-87
2022/08/26 05:59:26;;;;;;;27.23;14.00;;;20.60;99.90;;;;;;5134386;27;20030;-84
2022/08/26 06:02:10;;;;;;;28.50;14.40;;;20.50;99.90;;;;;;5111038;27;20038;-84
2022/08/26 06:04:55;;;;;;;24.67;13.20;;;;;;;;;;5134941;27;20042;-82
2022/08/26 06:10:48;;;;;;;26.77;13.30;;;20.70;99.90;;;;;;5133348;27;20411;-81
2022/08/26 06:13:33;;;;;;;25.77;13.77;;;20.60;99.90;;;;;;5121961;27;20092;-81
2022/08/26 06:16:22;;;;;;;26.25;12.65;;;20.70;99.90;;;;;;5134408;27;20176;-82
2022/08/26 06:19:07;;;;;;;30.33;12.63;;;20.80;99.90;;;;;;5141232;27;20079;-82
2022/08/26 06:21:51;;;;;;;28.38;12.20;;;21.10;99.90;;;;;;5156549;27;20042;-82
2022/08/26 06:27:39;;;;;;;25.30;11.70;;;;;;;;;;5139720;27;20070;-83
2022/08/26 06:30:24;;;;;;;27.80;12.45;;;21.00;99.90;;;;;;5137674;27;20402;-83
2022/08/26 06:33:08;;;;;;;23.67;10.27;;;20.70;99.90;;;;;;5121116;27;20110;-85
2022/08/26 06:35:52;;;;;;;24.08;10.35;;;21.00;99.90;;;;;;5111933;28;20046;-82
2022/08/26 06:38:37;;;;;;;22.75;9.70;;;;;;;;;;5134588;27;20040;-86
2022/08/26 06:41:22;;;;;;;19.83;9.57;;;21.60;99.90;;;;;;5119582;27;20046;-84
2022/08/26 06:44:07;;;;;;;22.15;9.63;;;21.20;99.90;;;;;;5129702;27;20050;-84
2022/08/26 06:46:51;;;;;;;19.52;8.63;;;21.10;99.90;;;;;;5135953;27;20512;-85
2022/08/26 06:49:36;;;;;;;25.17;9.13;;;21.20;99.90;;;;;;5110802;27;20038;-84
2022/08/26 06:52:20;;;;;;;24.60;9.27;;;21.20;99.90;;;;;;5135506;27;20489;-84
2022/08/26 06:55:04;;;;;;;21.90;8.48;;;21.20;99.90;;;;;;5134951;27;20118;-84
2022/08/26 06:57:49;;;;;;;20.15;8.73;;;21.30;99.90;;;;;;5135899;27;20492;-85
2022/08/26 07:00:35;;;;;;;18.65;7.22;;;21.00;99.90;;;;;;5119507;27;20096;-84
2022/08/26 07:03:20;;;;;;;18.55;7.85;;;21.30;99.90;;;;;;5116292;27;20046;-84
2022/08/26 07:06:05;;;;;;;18.80;7.43;;;21.30;99.90;;;;;;5131668;27;20065;-84
2022/08/26 07:08:51;;;;;;;17.52;7.55;;;21.40;99.90;;;;;;5111359;27;20039;-83
2022/08/26 07:11:37;;;;;;;15.48;6.68;;;21.10;99.90;;;;;;5138285;27;20070;-84
2022/08/26 07:14:22;;;;;;;21.02;7.03;;;21.30;99.90;;;;;;5142909;27;20084;-84
2022/08/26 07:17:07;;;;;;;16.65;7.60;;;;;;;;;;5127289;27;20041;-83
2022/08/26 07:19:52;;;;;;;16.13;6.03;;;21.20;99.90;;;;;;5156509;27;20049;-85
2022/08/26 07:22:37;;;;;;;16.95;6.90;;;21.20;99.90;;;;;;5147958;27;20034;-84
2022/08/26 07:25:21;;;;;;;17.17;6.78;;;21.40;99.90;;;;;;5156300;27;20037;-84
2022/08/26 07:28:06;;;;;;;13.27;5.97;;;20.90;99.90;;;;;;5118918;27;20058;-84
2022/08/26 07:30:50;;;;;;;16.13;6.95;;;21.10;99.90;;;;;;5112426;27;20080;-83
2022/08/26 07:33:37;;;;;;;17.02;6.60;;;21.10;99.90;;;;;;5155963;27;20398;-83
2022/08/26 07:36:23;;;;;;;18.92;7.05;;;21.20;99.90;;;;;;5140415;27;20093;-84
2022/08/26 07:39:07;;;;;;;15.25;5.85;;;21.60;99.90;;;;;;5146856;27;20058;-84
2022/08/26 07:41:52;;;;;;;14.20;5.57;;;21.10;99.90;;;;;;5137244;27;20394;-84
2022/08/26 07:44:36;;;;;;;19.02;5.07;;;21.20;99.90;;;;;;5122596;27;20399;-83
2022/08/26 07:47:21;;;;;;;12.18;5.00;;;21.10;99.90;;;;;;5136801;27;20119;-83
2022/08/26 07:50:06;;;;;;;13.60;5.45;;;21.20;99.90;;;;;;5128845;27;20490;-83
2022/08/26 07:52:50;;;;;;;14.80;5.32;;;21.10;99.90;;;;;;5121440;27;20037;-84
2022/08/26 07:55:34;;;;;;;15.27;4.90;;;21.10;99.90;;;;;;5149294;27;20085;-83
2022/08/26 07:58:18;;;;;;;12.75;4.47;;;21.20;99.90;;;;;;5122486;27;20243;-84
2022/08/26 08:01:03;;;;;;;13.13;5.13;;;21.40;99.90;;;;;;5137162;27;20115;-85
2022/08/26 08:03:50;;;;;;;13.35;4.35;;;21.20;99.90;;;;;;5148716;27;20038;-84
2022/08/26 08:06:34;;;;;;;12.57;4.20;;;21.20;99.90;;;;;;5119863;27;20501;-84
2022/08/26 08:09:18;;;;;;;14.95;4.57;;;21.30;99.90;;;;;;5126654;27;20070;-84
2022/08/26 08:12:03;;;;;;;10.70;3.80;;;21.00;99.90;;;;;;5154872;27;20417;-84
2022/08/26 08:14:48;;;;;;;13.20;3.83;;;21.30;99.90;;;;;;5128767;27;20544;-84
2022/08/26 08:17:33;;;;;;;9.00;3.72;;;21.30;99.90;;;;;;5116663;27;20045;-83
2022/08/26 08:20:19;;;;;;;12.95;3.88;;;21.50;99.90;;;;;;5124818;27;20506;-84
2022/08/26 08:23:03;;;;;;;13.35;2.70;;;;;;;;;;5149635;27;20041;-87
2022/08/26 08:25:48;;;;;;;8.32;2.58;;;21.40;99.90;;;;;;5098520;28;20087;-84
2022/08/26 08:28:32;;;;;;;8.63;2.92;;;21.50;99.90;;;;;;5127226;27;20096;-84
2022/08/26 08:31:23;;;;;;;10.45;2.67;;;21.30;99.90;;;;;;5098439;27;20042;-84
2022/08/26 08:34:07;;;;;;;9.57;2.83;;;21.40;99.90;;;;;;5154640;27;20042;-84
2022/08/26 08:36:52;;;;;;;15.18;3.08;;;22.50;99.90;;;;;;5120455;27;20057;-83
2022/08/26 08:39:36;;;;;;;11.50;2.70;;;21.50;99.90;;;;;;5134580;27;20031;-84
2022/08/26 08:42:26;;;;;;;9.20;2.55;;;22.00;99.90;;;;;;5138530;27;20033;-84
2022/08/26 08:45:16;;;;;;;11.20;2.40;;;21.30;99.90;;;;;;5124017;27;20038;-84
2022/08/26 08:48:12;;;;;;;11.27;3.00;;;21.50;99.90;;;;;;5143964;27;20038;-84
2022/08/26 08:51:05;;;;;;;8.52;2.28;;;21.30;99.90;;;;;;5137145;27;20031;-82
2022/08/26 08:53:52;;;;;;;10.95;2.17;;;21.40;99.90;;;;;;5111437;27;20029;-83
2022/08/26 08:56:51;;;;;;;12.30;3.05;;;21.50;99.90;;;;;;5131233;27;20046;-83
2022/08/26 08:59:46;;;;;;;9.00;2.53;;;21.30;99.90;;;;;;5120168;27;20030;-83
2022/08/26 09:02:41;;;;;;;7.22;2.50;;;21.40;99.90;;;;;;5132215;27;20034;-84
2022/08/26 09:05:30;;;;;;;9.48;2.08;;;21.20;99.90;;;;;;5131266;27;20088;-83
2022/08/26 09:08:20;;;;;;;7.15;2.28;;;21.20;99.90;;;;;;5128140;27;20033;-85
2022/08/26 09:11:05;;;;;;;7.03;2.30;;;;;;;;;;5131560;27;20123;-84
2022/08/26 09:13:53;;;;;;;9.88;2.13;;;21.30;99.90;;;;;;5115444;27;20160;-82
2022/08/26 09:16:57;;;;;;;9.75;2.40;;;21.10;99.90;;;;;;5138457;27;20087;-84
2022/08/26 09:19:53;;;;;;;8.32;1.90;;;21.10;99.90;;;;;;5131299;27;20042;-84
2022/08/26 09:22:38;;;;;;;13.15;2.42;;;20.80;99.90;;;;;;5117239;28;20107;-84
2022/08/26 09:25:23;;;;;;;11.48;2.92;;;;;;;;;;5130478;27;20083;-83
2022/08/26 09:28:15;;;;;;;8.88;2.00;;;21.10;99.90;;;;;;5122423;27;20460;-87
2022/08/26 09:31:13;;;;;;;9.50;1.98;;;21.20;99.90;;;;;;5133606;27;20038;-83
2022/08/26 09:34:15;;;;;;;14.90;2.60;;;21.40;99.90;;;;;;5117260;28;20110;-84
2022/08/26 09:36:59;;;;;;;10.90;2.35;;;21.30;99.90;;;;;;5121512;28;20470;-84
2022/08/26 09:39:44;;;;;;;9.95;2.08;;;21.40;99.90;;;;;;5119445;28;20045;-84
2022/08/26 09:42:28;;;;;;;9.98;2.55;;;21.60;99.90;;;;;;5116078;27;20096;-85
2022/08/26 09:45:13;;;;;;;11.95;3.10;;;;;;;;;;5106976;28;20038;-90
2022/08/26 09:47:57;;;;;;;6.68;2.40;;;21.80;99.90;;;;;;5120269;28;20490;-83
2022/08/26 09:50:54;;;;;;;9.85;2.60;;;22.00;99.90;;;;;;5115012;28;20544;-84
2022/08/26 09:53:53;;;;;;;11.57;2.53;;;21.80;99.90;;;;;;5112749;28;20084;-84
2022/08/26 09:56:38;;;;;;;10.20;2.60;;;22.00;99.90;;;;;;5116643;27;20047;-84
2022/08/26 09:59:29;;;;;;;8.15;3.13;;;22.50;99.90;;;;;;5106384;27;20131;-83
2022/08/26 10:02:34;;;;;;;7.90;2.40;;;22.00;99.90;;;;;;5138293;27;20490;-90
2022/08/26 10:05:30;;;;;;;9.30;2.47;;;21.80;99.90;;;;;;5130775;27;20041;-84
2022/08/26 10:08:23;;;;;;;9.48;2.75;;;21.80;99.90;;;;;;5134595;27;20440;-88
2022/08/26 10:11:25;;;;;;;8.45;3.00;;;21.80;99.90;;;;;;5116926;27;20039;-84
2022/08/26 10:14:27;;;;;;;8.55;2.60;;;21.80;99.90;;;;;;5103512;28;20058;-85
2022/08/26 10:17:27;;;;;;;9.38;2.90;;;21.80;99.90;;;;;;5124095;28;20078;-83
2022/08/26 10:20:15;;;;;;;10.82;2.17;;;21.70;99.90;;;;;;5120703;27;20038;-83
2022/08/26 10:23:36;;;;;;;8.82;2.92;;;21.80;99.90;;;;;;5116869;28;20097;-84
2022/08/26 10:26:52;;;;;;;9.63;2.90;;;21.70;99.90;;;;;;5065110;28;20137;-86
2022/08/26 10:29:46;;;;;;;11.88;2.83;;;21.90;99.90;;;;;;5098426;28;21737;-84
2022/08/26 10:32:38;;;;;;;8.15;2.60;;;21.80;99.90;;;;;;5100494;28;20392;-84
2022/08/26 10:35:25;;;;;;;8.52;2.45;;;;;;;;;;5109054;28;20035;-84
2022/08/26 10:38:15;;;;;;;17.70;3.30;;;21.80;99.90;;;;;;5102299;28;20042;-84
2022/08/26 10:41:11;;;;;;;11.48;2.72;;;21.80;99.90;;;;;;5110495;27;20085;-84
2022/08/26 10:43:59;;;;;;;12.45;2.95;;;21.50;99.90;;;;;;5116061;28;20532;-84
2022/08/26 10:46:53;;;;;;;10.77;2.63;;;22.00;99.90;;;;;;5109096;28;20070;-84
2022/08/26 10:49:38;;;;;;;10.60;2.65;;;21.90;99.90;;;;;;5100653;28;20660;-84
2022/08/26 10:52:42;;;;;;;8.82;2.53;;;21.90;99.90;;;;;;5102089;28;20109;-84
2022/08/26 10:55:55;;;;;;;13.45;2.75;;;21.90;99.90;;;;;;5100524;28;20106;-83
2022/08/26 10:59:09;;;;;;;8.10;2.22;;;22.00;99.90;;;;;;5102245;28;20542;-83
2022/08/26 11:01:58;;;;;;;9.95;2.15;;;22.00;99.90;;;;;;5113002;28;20110;-84
2022/08/26 11:04:43;;;;;;;5.82;1.77;;;;;;;;;;5097156;28;20089;-83
2022/08/26 11:07:44;;;;;;;8.52;2.85;;;21.90;99.90;;;;;;5103944;27;20030;-84
2022/08/26 11:10:41;;;;;;;9.27;2.25;;;22.50;99.90;;;;;;5123269;27;20037;-84
2022/08/26 11:14:04;;;;;;;11.50;2.20;;;21.80;99.90;;;;;;5115269;28;20035;-84
2022/08/26 11:16:51;;;;;;;10.55;2.30;;;21.70;99.90;;;;;;5059168;28;20188;-83
2022/08/26 11:19:37;;;;;;;7.60;2.67;;;21.70;99.90;;;;;;5048237;28;20552;-85
2022/08/26 11:22:36;;;;;;;9.07;2.13;;;21.70;99.90;;;;;;5105761;27;20042;-84
2022/08/26 11:25:22;;;;;;;10.13;2.17;;;21.50;99.90;;;;;;5108095;28;20494;-88
2022/08/26 11:28:06;;;;;;;9.68;2.30;;;21.40;99.90;;;;;;5104083;27;20869;-83
2022/08/26 11:30:51;;;;;;;8.77;2.58;;;21.40;99.90;;;;;;5109097;27;20108;-83
2022/08/26 11:33:57;;;;;;;9.88;2.47;;;21.40;99.90;;;;;;5106613;28;20039;-84
2022/08/26 11:36:42;;;;;;;12.52;2.60;;;;;;;;;;5107580;28;20041;-83
2022/08/26 11:39:47;;;;;;;8.57;2.20;;;21.30;99.90;;;;;;5109694;28;20038;-84
2022/08/26 11:42:37;;;;;;;8.95;2.22;;;21.40;99.90;;;;;;5109397;28;20092;-83
2022/08/26 11:45:21;;;;;;;9.68;2.42;;;;;;;;;;5114009;28;20031;-90
2022/08/26 11:48:15;;;;;;;8.13;2.20;;;21.50;99.90;;;;;;5113717;27;20063;-88
2022/08/26 11:51:10;;;;;;;7.22;2.15;;;21.60;99.90;;;;;;5112619;28;20080;-83
2022/08/26 11:54:09;;;;;;;9.45;2.38;;;21.00;99.90;;;;;;5102151;28;20026;-83
2022/08/26 11:56:54;;;;;;;12.25;2.72;;;21.60;99.90;;;;;;5120937;27;20091;-86
2022/08/26 11:59:40;;;;;;;9.82;3.03;;;21.60;99.90;;;;;;5093643;28;20082;-85
2022/08/26 12:02:25;;;;;;;9.45;2.75;;;21.60;99.90;;;;;;5104621;28;20034;-89
2022/08/26 12:05:22;;;;;;;15.63;3.50;;;21.70;99.90;;;;;;5099712;28;20092;-85
2022/08/26 12:08:11;;;;;;;11.75;2.53;;;21.60;99.90;;;;;;5109407;27;20042;-84
2022/08/26 12:11:08;;;;;;;4.95;2.40;;;21.70;99.90;;;;;;5111745;28;20084;-84
2022/08/26 12:14:03;;;;;;;8.02;2.20;;;21.70;99.90;;;;;;5111436;28;20035;-84
2022/08/26 12:16:48;;;;;;;7.30;2.53;;;21.70;99.90;;;;;;5095458;28;20043;-84
2022/08/26 12:19:33;;;;;;;9.50;2.40;;;21.30;99.90;;;;;;5105084;28;20114;-84
2022/08/26 12:22:33;;;;;;;6.30;2.15;;;21.20;99.90;;;;;;5130057;27;20049;-84
2022/08/26 12:25:22;;;;;;;9.55;2.75;;;21.30;99.90;;;;;;5131695;27;20076;-84
2022/08/26 12:28:07;;;;;;;9.02;2.33;;;;;;;;;;5111483;27;20127;-84
2022/08/26 12:31:03;;;;;;;8.32;2.13;;;21.10;99.90;;;;;;5102751;27;20503;-84
2022/08/26 12:33:48;;;;;;;9.75;2.08;;;21.10;99.90;;;;;;5109846;28;20499;-84
2022/08/26 12:36:55;;;;;;;8.77;2.40;;;21.10;99.90;;;;;;5109802;27;20038;-86
2022/08/26 12:39:42;;;;;;;8.23;2.17;;;21.00;99.90;;;;;;5108813;28;20034;-84
2022/08/26 12:42:41;;;;;;;9.55;2.22;;;20.40;99.90;;;;;;5107008;28;20035;-84
2022/08/26 12:45:40;;;;;;;7.55;2.20;;;20.80;99.90;;;;;;5100561;28;20035;-85
2022/08/26 12:48:32;;;;;;;10.27;2.63;;;20.90;99.90;;;;;;5093853;28;20042;-85
2022/08/26 12:51:27;;;;;;;6.55;2.10;;;20.70;99.90;;;;;;5105648;27;20391;-84
2022/08/26 12:54:14;;;;;;;7.65;2.53;;;20.90;99.90;;;;;;5093818;28;20411;-84
2022/08/26 12:57:12;;;;;;;6.30;2.60;;;20.70;99.90;;;;;;5111047;28;20404;-84
2022/08/26 13:00:41;;;;;;;6.68;1.92;;;20.70;99.90;;;;;;5108934;28;20166;-84
2022/08/26 13:03:28;;;;;;;7.78;1.80;;;20.90;99.90;;;;;;5113130;27;20027;-84
2022/08/26 13:06:33;;;;;;;9.63;1.65;;;21.00;99.90;;;;;;5111006;28;20444;-85
2022/08/26 13:09:18;;;;;;;6.90;1.80;;;21.20;99.90;;;;;;5109050;27;20114;-83
2022/08/26 13:12:03;;;;;;;6.00;1.63;;;21.20;99.90;;;;;;5106782;27;20111;-84
2022/08/26 13:14:47;;;;;;;4.85;1.60;;;21.50;99.90;;;;;;5133948;27;20164;-84
2022/08/26 13:17:33;;;;;;;5.88;1.90;;;22.00;99.90;;;;;;5092068;28;20051;-84
2022/08/26 13:20:17;;;;;;;8.02;1.98;;;22.00;99.90;;;;;;5092035;28;20404;-87
2022/08/26 13:23:02;;;;;;;8.52;2.30;;;;;;;;;;5109643;27;20099;-84
2022/08/26 13:25:46;;;;;;;9.32;2.90;;;21.90;99.90;;;;;;5121960;27;20049;-83
2022/08/26 13:28:30;;;;;;;7.75;2.30;;;21.60;99.90;;;;;;5140316;27;20551;-83
2022/08/26 13:31:15;;;;;;;8.23;2.17;;;21.60;99.90;;;;;;5097973;28;20118;-84
2022/08/26 13:34:00;;;;;;;8.50;3.00;;;21.70;99.90;;;;;;5113894;28;20047;-84
2022/08/26 13:36:48;;;;;;;7.65;1.98;;;21.50;99.90;;;;;;5126653;28;20440;-83
2022/08/26 13:39:32;;;;;;;7.00;2.53;;;21.70;99.90;;;;;;5116594;28;20092;-83
2022/08/26 13:42:16;;;;;;;9.30;3.17;;;21.70;99.90;;;;;;5117918;28;20182;-83
2022/08/26 13:45:01;;;;;;;8.88;2.50;;;21.90;99.90;;;;;;5115190;28;20122;-87
2022/08/26 13:47:45;;;;;;;11.02;3.00;;;21.20;99.90;;;;;;5131115;28;20046;-84
2022/08/26 13:50:30;;;;;;;9.50;2.85;;;21.10;99.90;;;;;;5117272;28;20066;-84
2022/08/26 13:53:15;;;;;;;9.73;2.60;;;21.00;99.90;;;;;;5133805;27;20120;-83
2022/08/26 13:56:00;;;;;;;10.80;2.60;;;21.10;99.90;;;;;;5136264;27;20054;-84
2022/08/26 13:58:45;;;;;;;10.18;2.60;;;21.00;99.90;;;;;;5120034;27;20101;-84
2022/08/26 14:01:30;;;;;;;10.55;2.95;;;20.80;99.90;;;;;;5114010;28;20053;-83
2022/08/26 14:04:15;;;;;;;9.45;3.00;;;20.90;99.90;;;;;;5127941;27;20070;-83
2022/08/26 14:06:59;;;;;;;9.68;2.97;;;20.80;99.90;;;;;;5131632;27;20092;-84
2022/08/26 14:09:44;;;;;;;6.60;2.97;;;20.80;99.90;;;;;;5131821;27;20038;-84
2022/08/26 14:12:28;;;;;;;5.50;2.50;;;20.70;99.90;;;;;;5131334;27;20109;-84
2022/08/26 14:15:15;;;;;;;12.02;2.85;;;20.90;99.90;;;;;;5116075;27;20046;-85
2022/08/26 14:18:02;;;;;;;10.70;2.72;;;20.70;99.90;;;;;;5135161;27;20542;-84
2022/08/26 14:20:48;;;;;;;8.57;2.38;;;20.80;99.90;;;;;;5128692;27;20060;-84
2022/08/26 14:23:33;;;;;;;8.73;2.20;;;21.00;99.90;;;;;;5157097;27;20083;-84
2022/08/26 14:26:17;;;;;;;8.57;2.42;;;21.60;99.90;;;;;;5129775;27;20138;-84
2022/08/26 14:29:04;;;;;;;10.93;2.78;;;20.70;99.90;;;;;;5136729;27;20058;-83
2022/08/26 14:31:48;;;;;;;8.23;2.65;;;20.90;99.90;;;;;;5125554;27;20029;-84
2022/08/26 14:34:32;;;;;;;10.68;2.63;;;21.00;99.90;;;;;;5143068;27;20506;-84
2022/08/26 14:37:17;;;;;;;14.32;3.35;;;21.00;99.90;;;;;;5114763;27;20630;-84
2022/08/26 14:40:04;;;;;;;10.27;3.25;;;21.00;99.90;;;;;;5141928;27;20065;-83
2022/08/26 14:42:52;;;;;;;8.95;2.28;;;20.80;99.90;;;;;;5132108;27;20131;-84